createdAt,value
2018-02-27T00:00:44.278Z,99295.70
2018-02-27T00:03:12.539Z,99295.08
2018-02-27T00:05:40.843Z,99291.27
2018-02-27T00:08:09.106Z,99286.74
2018-02-27T00:10:37.412Z,99281.92
2018-02-27T00:13:05.691Z,99281.54
2018-02-27T00:15:34.055Z,99275.88
2018-02-27T00:18:02.333Z,99276.37
2018-02-27T00:20:30.611Z,99273.47
2018-02-27T00:22:58.927Z,99272.56
2018-02-27T00:25:27.207Z,99271.81
2018-02-27T00:27:55.509Z,99259.50
2018-02-27T00:30:23.814Z,99272.64
2018-02-27T00:32:52.205Z,99267.10
2018-02-27T00:35:20.598Z,99261.20
2018-02-27T00:37:48.944Z,99261.34
2018-02-27T00:40:17.235Z,99263.95
2018-02-27T00:42:45.610Z,99260.09
2018-02-27T00:45:13.988Z,99262.55
2018-02-27T00:47:42.291Z,99262.84
2018-02-27T00:50:10.564Z,99260.78
2018-02-27T00:52:38.896Z,99257.39
2018-02-27T00:55:07.203Z,99265.75
2018-02-27T00:57:35.490Z,99263.38
2018-02-27T01:00:03.814Z,99256.29
2018-02-27T01:02:32.089Z,99255.13
2018-02-27T01:05:00.412Z,99251.21
2018-02-27T01:07:28.736Z,99251.31
2018-02-27T01:09:57.092Z,99256.81
2018-02-27T01:12:25.397Z,99250.02
2018-02-27T01:14:53.692Z,99248.48
2018-02-27T01:17:22.049Z,99253.80
2018-02-27T01:19:50.311Z,99248.25
2018-02-27T01:22:18.583Z,99238.95
2018-02-27T01:24:46.935Z,99246.55
2018-02-27T01:27:15.306Z,99240.48
2018-02-27T01:29:43.580Z,99233.27
2018-02-27T01:32:11.899Z,99241.00
2018-02-27T01:34:40.208Z,99238.05
2018-02-27T01:37:08.497Z,99209.89
2018-02-27T01:39:36.763Z,99228.40
2018-02-27T01:42:05.598Z,99221.52
2018-02-27T01:44:33.866Z,99220.71
2018-02-27T01:47:02.160Z,99216.50
2018-02-27T01:49:30.497Z,99216.09
2018-02-27T01:51:58.744Z,99216.06
2018-02-27T01:54:27.044Z,99211.52
2018-02-27T01:56:55.355Z,99215.12
2018-02-27T01:59:23.680Z,99207.58
2018-02-27T02:01:51.947Z,99205.29
2018-02-27T02:04:20.352Z,99202.19
2018-02-27T02:06:48.599Z,99208.91
2018-02-27T02:09:16.925Z,99201.94
2018-02-27T02:11:45.215Z,99196.84
2018-02-27T02:14:13.490Z,99195.54
2018-02-27T02:16:41.785Z,99192.24
2018-02-27T02:19:10.581Z,99188.12
2018-02-27T02:21:38.842Z,99187.53
2018-02-27T02:24:07.156Z,99187.64
2018-02-27T02:26:35.423Z,99191.53
2018-02-27T02:29:03.739Z,99192.20
2018-02-27T02:31:32.031Z,99181.94
2018-02-27T02:34:00.301Z,99183.20
2018-02-27T02:36:28.589Z,99183.68
2018-02-27T02:38:56.854Z,99183.78
2018-02-27T02:41:25.169Z,99174.80
2018-02-27T02:43:53.477Z,99181.59
2018-02-27T02:46:21.732Z,99181.45
2018-02-27T02:48:50.047Z,99180.47
2018-02-27T02:51:18.375Z,99177.73
2018-02-27T02:53:46.678Z,99179.39
2018-02-27T02:56:14.964Z,99181.07
2018-02-27T02:58:43.285Z,99183.98
2018-02-27T03:01:11.576Z,99187.61
2018-02-27T03:03:39.869Z,99182.66
2018-02-27T03:06:08.180Z,99184.06
2018-02-27T03:08:36.479Z,99173.75
2018-02-27T03:11:05.868Z,99167.80
2018-02-27T03:13:34.167Z,99170.23
2018-02-27T03:16:02.452Z,99165.92
2018-02-27T03:18:30.731Z,99168.45
2018-02-27T03:20:59.026Z,99162.44
2018-02-27T03:23:27.317Z,99155.88
2018-02-27T03:25:55.591Z,99159.17
2018-02-27T03:28:23.905Z,99151.06
2018-02-27T03:30:52.527Z,99146.48
2018-02-27T03:33:20.857Z,99142.34
2018-02-27T03:35:49.135Z,99141.67
2018-02-27T03:38:17.432Z,99140.86
2018-02-27T03:40:45.699Z,99135.29
2018-02-27T03:43:13.964Z,99133.47
2018-02-27T03:45:42.251Z,99136.42
2018-02-27T03:48:10.523Z,99132.34
2018-02-27T03:50:38.848Z,99139.80
2018-02-27T03:53:07.144Z,99139.41
2018-02-27T03:55:35.688Z,99141.34
2018-02-27T03:58:03.964Z,99134.58
2018-02-27T04:00:32.259Z,99128.15
2018-02-27T04:03:00.559Z,99132.50
2018-02-27T04:05:28.892Z,99130.86
2018-02-27T04:07:57.172Z,99131.03
2018-02-27T04:10:25.464Z,99125.06
2018-02-27T04:12:53.748Z,99123.59
2018-02-27T04:15:22.053Z,99128.11
2018-02-27T04:17:50.705Z,99123.22
2018-02-27T04:20:18.980Z,99125.88
2018-02-27T04:22:47.283Z,99125.70
2018-02-27T04:25:15.598Z,99120.80
2018-02-27T04:27:43.858Z,99119.28
2018-02-27T04:30:12.143Z,99120.54
2018-02-27T04:32:40.423Z,99127.50
2018-02-27T04:35:09.066Z,99121.77
2018-02-27T04:37:37.397Z,99121.90
2018-02-27T04:40:05.676Z,99127.77
2018-02-27T04:42:34.115Z,99123.89
2018-02-27T04:45:02.404Z,99126.83
2018-02-27T04:47:30.703Z,99126.52
2018-02-27T04:49:58.970Z,99126.83
2018-02-27T04:52:27.267Z,99133.91
2018-02-27T04:54:55.533Z,99137.33
2018-02-27T04:57:23.866Z,99137.84
2018-02-27T04:59:52.102Z,99140.40
2018-02-27T05:02:20.451Z,99136.19
2018-02-27T05:04:48.743Z,99135.15
2018-02-27T05:07:17.035Z,99131.55
2018-02-27T05:09:45.313Z,99135.91
2018-02-27T05:12:13.607Z,99129.19
2018-02-27T05:14:41.865Z,99127.75
2018-02-27T05:17:10.185Z,99131.36
2018-02-27T05:19:38.474Z,99120.14
2018-02-27T05:22:06.765Z,99119.05
2018-02-27T05:24:35.051Z,99121.53
2018-02-27T05:27:03.390Z,99117.84
2018-02-27T05:29:31.689Z,99120.83
2018-02-27T05:31:59.974Z,99115.25
2018-02-27T05:34:28.359Z,99124.52
2018-02-27T05:36:56.634Z,99121.47
2018-02-27T05:39:24.970Z,99116.31
2018-02-27T05:41:53.291Z,99116.93
2018-02-27T05:44:21.585Z,99112.69
2018-02-27T05:46:49.853Z,99119.94
2018-02-27T05:49:18.170Z,99114.38
2018-02-27T05:51:46.482Z,99116.11
2018-02-27T05:54:14.828Z,99111.89
2018-02-27T05:56:43.091Z,99111.25
2018-02-27T05:59:11.413Z,99119.22
2018-02-27T06:01:39.726Z,99091.61
2018-02-27T06:04:08.061Z,99109.54
2018-02-27T06:06:36.369Z,99116.11
2018-02-27T06:09:05.239Z,99116.59
2018-02-27T06:11:33.546Z,99116.86
2018-02-27T06:14:01.841Z,99124.77
2018-02-27T06:16:30.139Z,99122.64
2018-02-27T06:18:58.471Z,99121.78
2018-02-27T06:21:26.742Z,99117.39
2018-02-27T06:23:55.049Z,99124.05
2018-02-27T06:26:23.340Z,99125.98
2018-02-27T06:28:51.680Z,99122.98
2018-02-27T06:31:19.960Z,99128.34
2018-02-27T06:33:48.339Z,99122.75
2018-02-27T06:36:16.619Z,99127.92
2018-02-27T06:38:44.932Z,99121.88
2018-02-27T06:41:13.229Z,99122.59
2018-02-27T06:43:41.515Z,99122.72
2018-02-27T06:46:09.833Z,99127.03
2018-02-27T06:48:38.160Z,99130.27
2018-02-27T06:51:06.757Z,99131.92
2018-02-27T06:53:35.183Z,99133.48
2018-02-27T06:56:03.468Z,99133.38
2018-02-27T06:58:31.801Z,99142.23
2018-02-27T07:01:00.076Z,99140.11
2018-02-27T07:03:28.442Z,99138.17
2018-02-27T07:05:56.737Z,99135.11
2018-02-27T07:08:25.040Z,99136.72
2018-02-27T07:10:53.320Z,99137.70
2018-02-27T07:13:21.628Z,99138.78
2018-02-27T07:15:49.887Z,99128.72
2018-02-27T07:18:18.230Z,99128.44
2018-02-27T07:20:46.546Z,99139.23
2018-02-27T07:23:14.858Z,99137.09
2018-02-27T07:25:43.150Z,99139.83
2018-02-27T07:28:11.427Z,99136.86
2018-02-27T07:30:39.729Z,99136.03
2018-02-27T07:33:08.023Z,99142.22
2018-02-27T07:35:36.311Z,99133.72
2018-02-27T07:38:04.823Z,99128.35
2018-02-27T07:40:33.368Z,99127.90
2018-02-27T07:43:01.652Z,99139.05
2018-02-27T07:45:29.964Z,99138.48
2018-02-27T07:47:58.239Z,99149.13
2018-02-27T07:50:26.537Z,99144.50
2018-02-27T07:52:54.818Z,99144.96
2018-02-27T07:55:23.131Z,99140.48
2018-02-27T07:57:51.501Z,99146.97
2018-02-27T08:00:19.808Z,99151.19
2018-02-27T08:02:48.074Z,99151.84
2018-02-27T08:05:16.396Z,99153.52
2018-02-27T08:07:45.196Z,99146.86
2018-02-27T08:10:13.504Z,99131.42
2018-02-27T08:12:41.821Z,99146.09
2018-02-27T08:15:10.095Z,99148.58
2018-02-27T08:17:38.372Z,99138.74
2018-02-27T08:20:06.686Z,99152.22
2018-02-27T08:22:34.989Z,99134.64
2018-02-27T08:25:03.276Z,99147.70
2018-02-27T08:27:31.605Z,99154.61
2018-02-27T08:29:59.872Z,99153.55
2018-02-27T08:32:28.482Z,99143.19
2018-02-27T08:34:56.760Z,99147.63
2018-02-27T08:37:25.076Z,99144.73
2018-02-27T08:39:53.391Z,99146.34
2018-02-27T08:42:21.671Z,99131.66
2018-02-27T08:44:50.003Z,99145.40
2018-02-27T08:47:18.344Z,99128.32
2018-02-27T08:49:47.315Z,99143.52
2018-02-27T08:52:15.565Z,99149.38
2018-02-27T08:54:43.865Z,99141.03
2018-02-27T08:57:12.141Z,99143.25
2018-02-27T08:59:40.539Z,99139.99
2018-02-27T09:02:08.835Z,99138.36
2018-02-27T09:04:37.245Z,99140.45
2018-02-27T09:07:05.558Z,99143.45
2018-02-27T09:09:33.907Z,99138.63
2018-02-27T09:12:02.912Z,99142.81
2018-02-27T09:14:31.216Z,99132.30
2018-02-27T09:17:00.803Z,99140.44
2018-02-27T09:19:29.064Z,99150.33
2018-02-27T09:21:57.394Z,99144.61
2018-02-27T09:24:25.688Z,99139.63
2018-02-27T09:26:54.000Z,99125.16
2018-02-27T09:29:22.292Z,99138.62
2018-02-27T09:31:50.586Z,99143.19
2018-02-27T09:34:18.851Z,99125.66
2018-02-27T09:36:48.129Z,99120.82
2018-02-27T09:39:19.279Z,99124.59
2018-02-27T09:41:49.560Z,99122.02
2018-02-27T09:44:18.136Z,99119.03
2018-02-27T09:46:46.449Z,99113.06
2018-02-27T09:49:15.195Z,99117.09
2018-02-27T09:51:43.514Z,99112.89
2018-02-27T09:54:11.792Z,99112.95
2018-02-27T09:56:40.136Z,99106.02
2018-02-27T09:59:09.215Z,99108.97
2018-02-27T10:01:37.591Z,99107.70
2018-02-27T10:04:05.929Z,99108.48
2018-02-27T10:06:34.299Z,99051.28
2018-02-27T10:09:02.628Z,99107.03
2018-02-27T10:11:30.896Z,99099.95
2018-02-27T10:13:59.191Z,99105.27
2018-02-27T10:16:28.356Z,99105.19
2018-02-27T10:18:59.209Z,99089.58
2018-02-27T10:21:28.286Z,99101.24
2018-02-27T10:23:56.587Z,99096.41
2018-02-27T10:26:24.967Z,99011.81
2018-02-27T10:28:53.477Z,99091.27
2018-02-27T10:31:21.817Z,99086.45
2018-02-27T10:33:50.130Z,99090.70
2018-02-27T10:36:18.463Z,99092.88
2018-02-27T10:38:46.855Z,99084.58
2018-02-27T10:41:15.185Z,99092.06
2018-02-27T10:43:44.297Z,99093.84
2018-02-27T10:46:13.878Z,99084.63
2018-02-27T10:48:42.172Z,99090.09
2018-02-27T10:51:10.458Z,99088.42
2018-02-27T10:53:39.169Z,99078.22
2018-02-27T10:56:08.597Z,99083.23
2018-02-27T10:58:36.934Z,99085.43
2018-02-27T11:01:05.222Z,99091.18
2018-02-27T11:03:33.552Z,99092.41
2018-02-27T11:06:02.385Z,99088.25
2018-02-27T11:08:30.706Z,99087.34
2018-02-27T11:11:04.890Z,99086.41
2018-02-27T11:13:33.209Z,99081.94
2018-02-27T11:16:01.533Z,99090.06
2018-02-27T11:18:29.904Z,99079.19
2018-02-27T11:20:58.164Z,99081.09
2018-02-27T11:23:26.474Z,99077.64
2018-02-27T11:25:54.794Z,99051.11
2018-02-27T11:28:23.130Z,99069.44
2018-02-27T11:30:51.433Z,99070.33
2018-02-27T11:33:19.800Z,99064.27
2018-02-27T11:35:48.140Z,99062.38
2018-02-27T11:38:16.768Z,99054.58
2018-02-27T11:40:45.450Z,99061.66
2018-02-27T11:43:13.816Z,99064.35
2018-02-27T11:45:43.012Z,99050.81
2018-02-27T11:48:11.607Z,99048.89
2018-02-27T11:50:40.001Z,99060.70
2018-02-27T11:53:09.248Z,99059.05
2018-02-27T11:55:37.539Z,99060.05
2018-02-27T11:58:05.865Z,99055.66
2018-02-27T12:00:34.160Z,99041.16
2018-02-27T12:03:02.420Z,99039.76
2018-02-27T12:05:33.196Z,99040.33
2018-02-27T12:10:34.715Z,99036.16
2018-02-27T12:13:03.016Z,99035.45
2018-02-27T12:15:31.352Z,99029.62
2018-02-27T12:17:59.716Z,99033.80
2018-02-27T12:20:28.005Z,99037.89
2018-02-27T12:22:56.292Z,99025.53
2018-02-27T12:25:25.016Z,99019.61
2018-02-27T12:27:54.145Z,99026.41
2018-02-27T12:30:22.652Z,99026.63
2018-02-27T12:32:51.448Z,99015.45
2018-02-27T12:35:19.726Z,99021.59
2018-02-27T12:37:48.083Z,99021.50
2018-02-27T12:40:17.477Z,99014.31
2018-02-27T12:42:45.755Z,99015.38
2018-02-27T12:45:14.126Z,99009.92
2018-02-27T12:47:42.502Z,99007.38
2018-02-27T12:50:11.733Z,99012.97
2018-02-27T12:52:39.995Z,99010.64
2018-02-27T12:55:08.333Z,98997.38
2018-02-27T12:57:36.716Z,99016.59
2018-02-27T13:00:05.240Z,98999.81
2018-02-27T13:02:33.496Z,99002.98
2018-02-27T13:05:01.928Z,99011.20
2018-02-27T13:07:30.299Z,99004.61
2018-02-27T13:09:58.653Z,99000.95
2018-02-27T13:12:26.919Z,99007.98
2018-02-27T13:14:55.245Z,99012.91
2018-02-27T13:17:23.584Z,99000.47
2018-02-27T13:19:51.884Z,98991.67
2018-02-27T13:22:20.232Z,98982.70
2018-02-27T13:24:48.544Z,98988.63
2018-02-27T13:27:16.929Z,98984.63
2018-02-27T13:29:45.223Z,98983.62
2018-02-27T13:32:14.533Z,98977.66
2018-02-27T13:34:42.827Z,98980.30
2018-02-27T13:37:11.185Z,98983.27
2018-02-27T13:39:39.971Z,98975.22
2018-02-27T13:42:08.256Z,98979.01
2018-02-27T13:44:36.555Z,98971.23
2018-02-27T13:47:05.393Z,98970.98
2018-02-27T13:49:33.890Z,98967.62
2018-02-27T13:52:02.189Z,98961.76
2018-02-27T13:54:30.583Z,98961.97
2018-02-27T13:56:59.033Z,98972.97
2018-02-27T13:59:28.252Z,98965.41
2018-02-27T14:01:56.568Z,98968.80
2018-02-27T14:04:24.893Z,98966.59
2018-02-27T14:06:53.171Z,98965.00
2018-02-27T14:09:21.491Z,98966.38
2018-02-27T14:11:49.767Z,98960.14
2018-02-27T14:14:18.262Z,98965.32
2018-02-27T14:16:46.525Z,98958.91
2018-02-27T14:19:14.856Z,98950.83
2018-02-27T14:21:43.133Z,98955.33
2018-02-27T14:24:12.129Z,98940.25
2018-02-27T14:26:40.385Z,98936.56
2018-02-27T14:29:08.771Z,98936.01
2018-02-27T14:31:37.039Z,98936.02
2018-02-27T14:34:05.309Z,98939.50
2018-02-27T14:36:33.660Z,98949.00
2018-02-27T14:39:01.964Z,98949.28
2018-02-27T14:41:30.267Z,98951.13
2018-02-27T14:43:58.661Z,98944.00
2018-02-27T14:46:26.980Z,98938.17
2018-02-27T14:48:55.246Z,98934.77
2018-02-27T14:51:23.548Z,98939.88
2018-02-27T14:53:51.812Z,98920.94
2018-02-27T14:56:20.330Z,98926.23
2018-02-27T14:58:48.625Z,98932.02
2018-02-27T15:01:17.069Z,98916.17
2018-02-27T15:03:45.839Z,98929.72
2018-02-27T15:06:14.255Z,98933.00
2018-02-27T15:08:43.149Z,98930.25
2018-02-27T15:11:11.554Z,98931.76
2018-02-27T15:13:39.977Z,98926.84
2018-02-27T15:16:08.286Z,98925.49
2018-02-27T15:18:36.607Z,98891.65
2018-02-27T15:21:04.923Z,98919.45
2018-02-27T15:23:33.255Z,98920.52
2018-02-27T15:26:01.556Z,98914.54
2018-02-27T15:28:29.888Z,98911.89
2018-02-27T15:30:58.152Z,98917.46
2018-02-27T15:33:26.507Z,98914.46
2018-02-27T15:35:54.796Z,98913.42
2018-02-27T15:38:23.155Z,98909.69
2018-02-27T15:40:51.470Z,98914.11
2018-02-27T15:43:21.294Z,98914.64
2018-02-27T15:45:49.595Z,98911.30
2018-02-27T15:48:17.919Z,98913.55
2018-02-27T15:50:46.277Z,98911.31
2018-02-27T15:53:14.551Z,98903.69
2018-02-27T15:55:42.868Z,98918.25
2018-02-27T15:58:11.256Z,98900.98
2018-02-27T16:00:39.578Z,98928.88
2018-02-27T16:03:07.895Z,98890.26
2018-02-27T16:05:37.318Z,98916.74
2018-02-27T16:08:05.612Z,98913.88
2018-02-27T16:10:33.904Z,98920.07
2018-02-27T16:13:02.221Z,98926.94
2018-02-27T16:15:30.534Z,98922.83
2018-02-27T16:17:58.847Z,98920.84
2018-02-27T16:20:27.213Z,98923.09
2018-02-27T16:22:55.506Z,98928.88
2018-02-27T16:25:23.799Z,98922.16
2018-02-27T16:27:52.085Z,98917.93
2018-02-27T16:30:20.453Z,98918.42
2018-02-27T16:32:48.886Z,98920.77
2018-02-27T16:35:17.230Z,98924.26
2018-02-27T16:37:45.675Z,98921.17
2018-02-27T16:40:14.071Z,98907.08
2018-02-27T16:42:42.740Z,98918.63
2018-02-27T16:45:11.028Z,98923.95
2018-02-27T16:47:39.314Z,98925.02
2018-02-27T16:50:07.635Z,98924.86
2018-02-27T16:52:36.089Z,98923.73
2018-02-27T16:55:05.875Z,98923.25
2018-02-27T16:57:36.597Z,98923.42
2018-02-27T17:00:05.683Z,98916.16
2018-02-27T17:02:34.112Z,98932.56
2018-02-27T17:05:02.421Z,98932.86
2018-02-27T17:07:31.302Z,98939.46
2018-02-27T17:09:59.825Z,98941.33
2018-02-27T17:12:28.143Z,98947.10
2018-02-27T17:14:56.465Z,98945.67
2018-02-27T17:17:24.771Z,98944.36
2018-02-27T17:19:53.099Z,98942.73
2018-02-27T17:22:21.432Z,98948.27
2018-02-27T17:24:49.772Z,98944.79
2018-02-27T17:27:18.341Z,98945.66
2018-02-27T17:29:46.915Z,98947.50
2018-02-27T17:32:15.224Z,98950.44
2018-02-27T17:34:43.524Z,98947.63
2018-02-27T17:37:11.828Z,98945.84
2018-02-27T17:39:40.101Z,98946.95
2018-02-27T17:42:08.451Z,98948.05
2018-02-27T17:44:36.718Z,98946.60
2018-02-27T17:47:05.917Z,98949.91
2018-02-27T17:49:34.256Z,98947.03
2018-02-27T17:52:02.605Z,98938.16
2018-02-27T17:54:30.872Z,98948.22
2018-02-27T17:56:59.155Z,98946.44
2018-02-27T17:59:27.507Z,98942.48
2018-02-27T18:01:55.787Z,98947.92
2018-02-27T18:04:24.125Z,98950.56
2018-02-27T18:06:52.364Z,98948.29
2018-02-27T18:09:20.710Z,98946.86
2018-02-27T18:11:48.995Z,98947.31
2018-02-27T18:14:17.320Z,98946.11
2018-02-27T18:16:46.779Z,98931.73
2018-02-27T18:19:15.984Z,98937.44
2018-02-27T18:21:44.309Z,98938.09
2018-02-27T18:24:12.583Z,98935.72
2018-02-27T18:26:40.899Z,98935.13
2018-02-27T18:29:09.164Z,98937.30
2018-02-27T18:31:37.480Z,98941.16
2018-02-27T18:34:05.805Z,98939.22
2018-02-27T18:36:34.100Z,98944.52
2018-02-27T18:39:02.377Z,98943.52
2018-02-27T18:41:30.735Z,98944.55
2018-02-27T18:43:59.188Z,98931.08
2018-02-27T18:46:27.368Z,98945.54
2018-02-27T18:48:55.660Z,98942.40
2018-02-27T18:51:23.963Z,98938.80
2018-02-27T18:53:52.257Z,98943.48
2018-02-27T18:56:21.358Z,98944.81
2018-02-27T18:58:49.657Z,98935.77
2018-02-27T19:01:18.076Z,98937.23
2018-02-27T19:03:46.369Z,98947.03
2018-02-27T19:06:14.651Z,98941.92
2018-02-27T19:08:42.950Z,98940.89
2018-02-27T19:11:11.234Z,98943.66
2018-02-27T19:13:39.542Z,98945.84
2018-02-27T19:16:07.807Z,98945.25
2018-02-27T19:18:36.154Z,98945.25
2018-02-27T19:21:05.390Z,98946.36
2018-02-27T19:23:33.707Z,98942.67
2018-02-27T19:26:02.038Z,98947.21
2018-02-27T19:28:30.345Z,98948.80
2018-02-27T19:30:58.669Z,98951.45
2018-02-27T19:33:27.165Z,98956.56
2018-02-27T19:35:55.534Z,98950.67
2018-02-27T19:38:23.859Z,98956.49
2018-02-27T19:40:52.365Z,98952.66
2018-02-27T19:43:20.868Z,98955.27
2018-02-27T19:45:49.986Z,98951.23
2018-02-27T19:48:24.429Z,98955.45
2018-02-27T19:50:52.815Z,98955.27
2018-02-27T19:53:21.466Z,98970.48
2018-02-27T19:55:50.386Z,98955.81
2018-02-27T19:58:18.761Z,98962.98
2018-02-27T20:00:47.114Z,98957.95
2018-02-27T20:03:15.389Z,98960.88
2018-02-27T20:05:44.036Z,98962.35
2018-02-27T20:08:12.329Z,98958.53
2018-02-27T20:10:40.625Z,98959.34
2018-02-27T20:13:08.932Z,98961.57
2018-02-27T20:15:37.213Z,98961.88
2018-02-27T20:18:10.468Z,98960.16
2018-02-27T20:20:38.757Z,98969.56
2018-02-27T20:23:12.671Z,98967.56
2018-02-27T20:25:40.955Z,98959.78
2018-02-27T20:31:10.367Z,98974.05
2018-02-27T20:33:38.685Z,98972.61
2018-02-27T20:36:06.984Z,98975.59
2018-02-27T20:38:40.921Z,98983.58
2018-02-27T20:41:09.237Z,98982.92
2018-02-27T20:43:37.648Z,98982.84
2018-02-27T20:46:05.906Z,98983.04
2018-02-27T20:48:34.433Z,98980.08
2018-02-27T20:51:04.260Z,98982.98
2018-02-27T20:53:35.241Z,98991.80
2018-02-27T20:56:06.136Z,98992.22
2018-02-27T20:58:34.498Z,98989.27
2018-02-27T21:01:03.311Z,98987.79
2018-02-27T21:03:31.575Z,98987.63
2018-02-27T21:05:59.930Z,98937.70
2018-02-27T21:08:28.227Z,98986.50
2018-02-27T21:10:57.561Z,98989.55
2018-02-27T21:13:25.841Z,98986.03
2018-02-27T21:15:54.153Z,98992.47
2018-02-27T21:18:22.436Z,98969.21
2018-02-27T21:20:50.734Z,98983.60
2018-02-27T21:23:19.022Z,98981.98
2018-02-27T21:25:47.329Z,98978.42
2018-02-27T21:28:15.602Z,98982.98
2018-02-27T21:30:43.891Z,98982.39
2018-02-27T21:33:12.174Z,98983.30
2018-02-27T21:35:40.475Z,98985.01
2018-02-27T21:38:08.759Z,98983.38
2018-02-27T21:40:37.041Z,98986.48
2018-02-27T21:43:05.335Z,98979.27
2018-02-27T21:45:33.647Z,98963.69
2018-02-27T21:48:01.973Z,98978.45
2018-02-27T21:50:30.292Z,98980.93
2018-02-27T21:52:58.564Z,98982.61
2018-02-27T21:55:26.879Z,98977.80
2018-02-27T21:57:55.162Z,98980.89
2018-02-27T22:00:23.432Z,98984.19
2018-02-27T22:02:51.735Z,98985.31
2018-02-27T22:05:20.037Z,98980.51
2018-02-27T22:07:48.318Z,98980.56
2018-02-27T22:10:16.607Z,98979.27
2018-02-27T22:12:44.894Z,98981.22
2018-02-27T22:15:13.191Z,98969.92
2018-02-27T22:17:41.468Z,98975.55
2018-02-27T22:20:09.772Z,98976.20
2018-02-27T22:22:38.251Z,98985.85
2018-02-27T22:25:06.558Z,98981.76
2018-02-27T22:27:34.843Z,98978.27
2018-02-27T22:30:03.138Z,98982.28
2018-02-27T22:32:31.394Z,98982.14
2018-02-27T22:34:59.710Z,98976.96
2018-02-27T22:37:27.982Z,98980.97
2018-02-27T22:39:56.307Z,98984.02
2018-02-27T22:42:24.573Z,98985.14
2018-02-27T22:44:52.895Z,98984.30
2018-02-27T22:47:21.191Z,98984.69
2018-02-27T22:49:49.504Z,98983.97
2018-02-27T22:52:17.837Z,98986.03
2018-02-27T22:54:46.118Z,98980.42
2018-02-27T22:57:14.414Z,98984.81
2018-02-27T22:59:43.331Z,98989.56
2018-02-27T23:02:11.591Z,98988.45
2018-02-27T23:04:39.900Z,98985.69
2018-02-27T23:07:08.188Z,98983.16
2018-02-27T23:09:36.468Z,98983.93
2018-02-27T23:12:04.770Z,98978.48
2018-02-27T23:14:33.068Z,98976.89
2018-02-27T23:17:01.593Z,98977.52
2018-02-27T23:19:29.898Z,98972.97
2018-02-27T23:21:58.174Z,98978.65
2018-02-27T23:24:31.885Z,98978.87
2018-02-27T23:27:02.286Z,98973.53
2018-02-27T23:29:30.701Z,98975.78
2018-02-27T23:32:01.289Z,98983.05
2018-02-27T23:34:37.387Z,98972.90
2018-02-27T23:37:05.650Z,98971.55
2018-02-27T23:39:33.936Z,98968.58
2018-02-27T23:42:02.212Z,98969.59
2018-02-27T23:44:30.528Z,98977.31
2018-02-27T23:46:58.996Z,98984.56
2018-02-27T23:49:27.310Z,98990.08
2018-02-27T23:51:55.596Z,98979.86
2018-02-27T23:54:23.893Z,98983.89
2018-02-27T23:56:52.171Z,98982.89
2018-02-27T23:59:20.512Z,98978.08
